Time;durP1;ratioP1;P1;durP2;ratioP2;P2;SDS_P1;SDS_P2;PMS_P1;PMS_P2;Temp;Humidity;BMP_temperature;BMP_pressure;BME280_temperature;BME280_humidity;BME280_pressure;Samples;Min_cycle;Max_cycle;Signal;HPM_P1;HPM_P2
2023/01/17 00:01:17;;;;;;;2.90;0.17;;;2.80;99.90;;;;;;5113860;28;20083;-43
2023/01/17 00:11:58;;;;;;;10.40;0.70;;;2.80;99.90;;;;;;5114491;28;20055;-43
2023/01/17 00:14:26;;;;;;;6.10;0.57;;;2.80;99.90;;;;;;5115207;28;20048;-44
2023/01/17 00:16:52;;;;;;;7.20;0.95;;;2.60;99.90;;;;;;5114215;28;20115;-43
2023/01/17 01:34:23;;;;;;;8.80;1.30;;;2.60;99.90;;;;;;5117051;28;20043;-39
2023/01/17 01:36:48;;;;;;;8.10;0.65;;;2.80;99.90;;;;;;5116233;28;20131;-38
2023/01/17 01:39:14;;;;;;;14.63;1.65;;;2.70;99.90;;;;;;5116185;28;20040;-38
2023/01/17 01:41:40;;;;;;;6.35;0.82;;;2.60;99.90;;;;;;5116941;28;20039;-41
2023/01/17 01:44:45;;;;;;;6.03;0.68;;;2.60;1.00;;;;;;5117717;28;20046;-41
2023/01/17 01:47:18;;;;;;;4.13;0.43;;;2.50;99.90;;;;;;5137275;27;20062;-38
2023/01/17 01:49:44;;;;;;;11.38;1.70;;;2.80;99.90;;;;;;5138014;27;20442;-39
2023/01/17 01:52:10;;;;;;;6.95;0.98;;;2.70;86.80;;;;;;5137602;27;20096;-40
2023/01/17 01:54:41;;;;;;;14.73;1.50;;;2.60;99.90;;;;;;5137547;27;20556;-40
2023/01/17 01:57:11;;;;;;;5.32;0.65;;;2.50;99.90;;;;;;5120039;27;20054;-39
2023/01/17 01:59:42;;;;;;;4.15;0.50;;;2.70;99.90;;;;;;5138037;27;20389;-38
2023/01/17 02:02:07;;;;;;;4.78;0.60;;;2.90;77.80;;;;;;5137469;27;20050;-40
2023/01/17 02:04:34;;;;;;;6.85;0.55;;;3.10;99.90;;;;;;5118963;27;20051;-35
2023/01/17 02:07:07;;;;;;;4.25;0.68;;;2.80;1.00;;;;;;5137398;27;20047;-38
2023/01/17 02:09:33;;;;;;;7.60;0.50;;;2.70;76.00;;;;;;5137340;27;20043;-40
2023/01/17 02:11:59;;;;;;;5.63;0.52;;;2.80;99.90;;;;;;5137236;27;20055;-41
2023/01/17 02:14:25;;;;;;;5.65;0.57;;;2.80;61.80;;;;;;5137212;27;20039;-38
2023/01/17 02:17:19;;;;;;;10.68;1.40;;;2.70;99.90;;;;;;5118894;27;20396;-38
2023/01/17 02:20:06;;;;;;;7.88;1.00;;;2.80;99.90;;;;;;5137140;27;20501;-39
2023/01/17 02:23:11;;;;;;;6.70;0.57;;;2.70;1.00;;;;;;5137042;27;20058;-40
2023/01/17 02:26:04;;;;;;;4.95;0.40;;;2.70;1.00;;;;;;5119225;27;20054;-38
2023/01/17 02:28:38;;;;;;;6.10;0.80;;;2.70;99.90;;;;;;5136966;27;20112;-39
2023/01/17 02:31:24;;;;;;;6.60;1.15;;;2.90;1.00;;;;;;5119672;27;20043;-40
2023/01/17 02:33:58;;;;;;;6.78;1.23;;;2.90;1.00;;;;;;5094964;27;20134;-40
2023/01/17 02:36:47;;;;;;;8.43;0.75;;;2.90;99.90;;;;;;5119036;27;20051;-40
2023/01/17 02:39:22;;;;;;;4.67;0.63;;;3.00;99.90;;;;;;5137620;27;20043;-40
2023/01/17 02:41:56;;;;;;;10.10;0.93;;;3.00;99.90;;;;;;5136682;27;20553;-39
2023/01/17 02:44:22;;;;;;;5.03;0.73;;;3.00;1.00;;;;;;5137186;27;20043;-41
2023/01/17 02:46:54;;;;;;;9.45;1.05;;;3.00;99.90;;;;;;5136964;27;20066;-41
2023/01/17 02:49:29;;;;;;;8.30;1.13;;;2.90;99.90;;;;;;5118451;27;20139;-40
2023/01/17 02:52:16;;;;;;;11.15;0.95;;;2.90;99.90;;;;;;5136504;27;20108;-41
2023/01/17 02:55:06;;;;;;;8.32;1.20;;;2.60;99.90;;;;;;5137018;27;20092;-41
2023/01/17 02:57:56;;;;;;;11.68;1.48;;;2.50;99.90;;;;;;5136391;27;20470;-41
2023/01/17 03:00:41;;;;;;;7.57;1.10;;;2.30;1.00;;;;;;5137222;27;20054;-41
2023/01/17 03:03:39;;;;;;;11.55;1.25;;;2.40;1.00;;;;;;5117929;27;20054;-42
2023/01/17 03:06:28;;;;;;;8.32;1.80;;;2.60;1.00;;;;;;5118667;27;20094;-42
2023/01/17 03:08:53;;;;;;;9.27;1.35;;;2.70;23.20;;;;;;5135410;27;20043;-41
2023/01/17 03:11:19;;;;;;;7.57;1.30;;;2.70;99.90;;;;;;5136044;27;20050;-41
2023/01/17 03:13:45;;;;;;;9.60;1.42;;;2.60;99.90;;;;;;5116848;27;20039;-41
2023/01/17 03:16:20;;;;;;;7.85;1.08;;;2.60;1.00;;;;;;5100740;27;20500;-42
2023/01/17 03:18:46;;;;;;;9.23;1.30;;;2.60;99.90;;;;;;5136011;27;20625;-42
2023/01/17 03:21:12;;;;;;;7.65;1.38;;;2.50;96.60;;;;;;5100877;27;20051;-42
2023/01/17 03:23:38;;;;;;;7.43;1.08;;;2.50;99.90;;;;;;5117460;27;20035;-42
2023/01/17 03:26:03;;;;;;;9.07;0.98;;;2.40;99.90;;;;;;5100433;27;20051;-41
2023/01/17 03:28:29;;;;;;;8.97;0.93;;;2.40;1.00;;;;;;5135672;27;20039;-41
2023/01/17 03:30:55;;;;;;;13.55;1.08;;;2.40;1.00;;;;;;5117362;27;20058;-42
2023/01/17 03:33:21;;;;;;;6.67;0.83;;;2.30;99.90;;;;;;5118045;27;20134;-42
2023/01/17 03:35:47;;;;;;;9.30;1.35;;;2.30;1.00;;;;;;5135664;27;20043;-42
2023/01/17 03:38:13;;;;;;;9.18;1.45;;;2.40;1.00;;;;;;5136072;27;20035;-42
2023/01/17 03:40:40;;;;;;;8.17;1.30;;;2.60;1.00;;;;;;5135514;27;20446;-41
2023/01/17 03:43:05;;;;;;;9.67;0.87;;;2.20;99.90;;;;;;5100522;27;20039;-41
2023/01/17 03:45:31;;;;;;;9.93;1.27;;;2.20;22.20;;;;;;5116502;27;20066;-41
2023/01/17 03:47:58;;;;;;;8.33;0.80;;;2.20;1.00;;;;;;5135359;27;20047;-41
2023/01/17 03:50:24;;;;;;;10.80;0.87;;;2.10;99.90;;;;;;5135335;27;20047;-41
2023/01/17 03:52:50;;;;;;;6.63;0.70;;;2.10;1.00;;;;;;5117029;27;20050;-41
2023/01/17 03:55:16;;;;;;;5.97;1.45;;;2.10;1.00;;;;;;5135202;27;20050;-42
2023/01/17 03:57:42;;;;;;;4.25;0.40;;;2.10;99.90;;;;;;5135207;27;20046;-41
2023/01/17 04:00:08;;;;;;;11.33;1.27;;;2.10;99.90;;;;;;5099801;27;20047;-41
2023/01/17 04:02:34;;;;;;;9.57;0.87;;;2.10;99.90;;;;;;5135064;27;20501;-41
2023/01/17 04:04:59;;;;;;;12.10;0.83;;;2.10;99.90;;;;;;5135056;27;20082;-41
2023/01/17 04:07:25;;;;;;;6.55;0.82;;;2.30;1.00;;;;;;5117163;27;20049;-41
2023/01/17 04:09:51;;;;;;;7.73;0.70;;;2.30;93.80;;;;;;5135014;27;20139;-41
2023/01/17 04:12:16;;;;;;;9.63;1.17;;;2.20;99.90;;;;;;5135012;27;20043;-41
2023/01/17 04:14:42;;;;;;;6.95;0.82;;;2.20;99.90;;;;;;5116690;27;20039;-41
2023/01/17 04:17:11;;;;;;;10.80;1.10;;;2.10;99.90;;;;;;5134908;27;20070;-41
2023/01/17 04:19:37;;;;;;;6.90;0.93;;;2.10;1.00;;;;;;5135172;27;20047;-41
2023/01/17 04:22:03;;;;;;;11.70;1.40;;;2.10;1.00;;;;;;5134303;27;20062;-40
2023/01/17 04:24:29;;;;;;;12.65;1.75;;;2.00;99.90;;;;;;5134485;27;20039;-41
2023/01/17 04:26:55;;;;;;;8.67;0.80;;;1.90;99.90;;;;;;5116536;27;20047;-40
2023/01/17 04:29:20;;;;;;;10.43;1.53;;;1.90;1.00;;;;;;5135036;27;20051;-39
2023/01/17 04:31:47;;;;;;;10.02;0.95;;;2.20;1.00;;;;;;5134782;27;20129;-39
2023/01/17 04:34:13;;;;;;;10.93;1.17;;;1.80;1.00;;;;;;5116625;28;20058;-38
2023/01/17 04:36:39;;;;;;;5.80;1.58;;;1.80;1.00;;;;;;5135502;27;20058;-38
2023/01/17 04:39:05;;;;;;;12.77;2.07;;;1.90;1.00;;;;;;5134680;28;20047;-35
2023/01/17 04:41:31;;;;;;;10.57;1.10;;;1.90;99.90;;;;;;5135185;28;20043;-35
2023/01/17 04:43:57;;;;;;;9.23;0.83;;;1.90;1.00;;;;;;5134530;28;20112;-38
2023/01/17 04:46:23;;;;;;;8.30;1.23;;;1.70;1.00;;;;;;5115771;28;20098;-35
2023/01/17 04:48:48;;;;;;;12.03;1.40;;;1.70;1.00;;;;;;5135193;28;20047;-36
2023/01/17 04:51:14;;;;;;;9.70;1.27;;;1.60;1.00;;;;;;5116230;28;20092;-34
2023/01/17 04:53:40;;;;;;;12.47;1.47;;;1.50;99.90;;;;;;5134492;28;20103;-38
2023/01/17 04:56:06;;;;;;;6.00;0.93;;;1.40;1.00;;;;;;5134561;28;20126;-35
2023/01/17 04:58:32;;;;;;;9.63;0.90;;;1.30;1.00;;;;;;5116148;28;20043;-39
2023/01/17 05:01:06;;;;;;;8.53;1.43;;;1.10;46.90;;;;;;5134493;28;20050;-38
2023/01/17 05:03:33;;;;;;;8.17;0.80;;;1.10;99.90;;;;;;5134379;28;20100;-37
2023/01/17 05:05:59;;;;;;;7.40;0.90;;;1.10;99.90;;;;;;5134697;28;20039;-37
2023/01/17 05:08:25;;;;;;;9.20;0.90;;;1.10;99.90;;;;;;5134085;28;20588;-39
2023/01/17 05:10:51;;;;;;;10.07;0.60;;;1.10;99.90;;;;;;5134341;28;20106;-38
2023/01/17 05:13:17;;;;;;;12.20;0.67;;;1.10;99.90;;;;;;5134586;28;20047;-37
2023/01/17 05:15:44;;;;;;;7.27;0.77;;;1.00;99.90;;;;;;5134264;28;20400;-38
2023/01/17 05:18:16;;;;;;;14.00;0.93;;;0.90;15.10;;;;;;5134340;28;20510;-38
2023/01/17 05:20:43;;;;;;;4.13;0.30;;;0.80;99.90;;;;;;5133967;28;20496;-38
2023/01/17 05:23:10;;;;;;;9.83;2.10;;;0.70;1.00;;;;;;5134198;28;20039;-38
2023/01/17 05:25:36;;;;;;;6.47;0.57;;;0.60;1.00;;;;;;5115645;28;20401;-39
2023/01/17 05:28:02;;;;;;;9.00;0.73;;;0.50;1.00;;;;;;5134107;27;20125;-39
2023/01/17 05:30:31;;;;;;;5.57;0.60;;;0.50;1.00;;;;;;5134167;28;20043;-39
2023/01/17 05:32:58;;;;;;;7.60;0.67;;;0.70;99.90;;;;;;5134099;28;20039;-39
2023/01/17 05:35:27;;;;;;;14.10;1.40;;;0.70;99.90;;;;;;5134931;27;20047;-40
2023/01/17 05:37:53;;;;;;;12.30;1.47;;;0.70;1.00;;;;;;5137042;27;20103;-38
2023/01/17 05:40:22;;;;;;;10.40;1.23;;;1.00;99.90;;;;;;5102702;27;20043;-40
2023/01/17 05:42:50;;;;;;;6.40;0.60;;;0.80;99.90;;;;;;5119430;27;20403;-39
2023/01/17 05:45:17;;;;;;;5.10;0.60;;;0.60;44.40;;;;;;5137693;27;20055;-39
2023/01/17 05:47:47;;;;;;;4.60;0.70;;;1.00;1.00;;;;;;5138351;27;20043;-39
2023/01/17 05:50:34;;;;;;;3.53;0.87;;;0.60;1.00;;;;;;5138573;27;20116;-40
2023/01/17 05:53:05;;;;;;;7.67;0.67;;;0.50;99.90;;;;;;5138233;27;20134;-39
2023/01/17 05:55:32;;;;;;;6.00;0.80;;;0.70;99.90;;;;;;5120314;27;20051;-40
2023/01/17 05:57:58;;;;;;;4.50;0.57;;;0.70;99.90;;;;;;5102662;27;20053;-39
2023/01/17 06:00:24;;;;;;;8.87;0.97;;;0.70;99.90;;;;;;5137458;27;20043;-40
2023/01/17 06:02:55;;;;;;;4.37;0.53;;;0.70;99.90;;;;;;5137326;27;20052;-40
2023/01/17 06:05:22;;;;;;;8.83;0.57;;;0.70;99.90;;;;;;5137384;27;20051;-40
2023/01/17 06:07:48;;;;;;;6.60;0.50;;;0.60;99.90;;;;;;5138206;27;20051;-39
2023/01/17 06:10:15;;;;;;;10.37;1.33;;;0.70;99.90;;;;;;5137304;27;20179;-39
2023/01/17 06:12:42;;;;;;;9.17;1.00;;;0.60;99.90;;;;;;5137232;27;20047;-40
2023/01/17 06:15:08;;;;;;;5.33;0.90;;;0.60;99.90;;;;;;5119417;27;20047;-40
2023/01/17 06:17:34;;;;;;;8.73;1.33;;;0.70;99.90;;;;;;5137199;27;20381;-40
2023/01/17 06:20:00;;;;;;;6.67;0.53;;;0.60;1.00;;;;;;5118770;27;20058;-39
2023/01/17 06:22:26;;;;;;;5.60;0.87;;;0.60;1.00;;;;;;5137050;27;20043;-40
2023/01/17 06:24:51;;;;;;;5.43;0.77;;;0.60;1.00;;;;;;5101827;27;20078;-40
2023/01/17 06:27:17;;;;;;;6.10;1.00;;;0.50;1.00;;;;;;5137343;27;20126;-40
2023/01/17 06:29:43;;;;;;;2.87;0.87;;;0.50;1.00;;;;;;5102473;27;20388;-40
2023/01/17 06:32:09;;;;;;;6.20;0.60;;;0.40;1.00;;;;;;5137429;27;20441;-40
2023/01/17 06:34:36;;;;;;;4.63;0.40;;;0.40;99.90;;;;;;5118727;27;20093;-40
2023/01/17 06:37:02;;;;;;;5.60;0.40;;;0.50;1.00;;;;;;5119275;27;20388;-40
2023/01/17 06:39:28;;;;;;;3.17;0.50;;;0.50;99.90;;;;;;5136759;27;20127;-40
2023/01/17 06:41:54;;;;;;;6.53;0.60;;;0.50;99.90;;;;;;5136776;27;20495;-41
2023/01/17 06:44:19;;;;;;;4.27;0.50;;;0.50;1.00;;;;;;5118869;27;20378;-40
2023/01/17 06:46:46;;;;;;;9.50;0.70;;;0.60;1.00;;;;;;5136976;27;20051;-41
2023/01/17 06:49:13;;;;;;;6.30;0.63;;;0.60;1.00;;;;;;5136495;27;20499;-41
2023/01/17 06:51:39;;;;;;;6.67;0.67;;;0.60;1.00;;;;;;5101403;27;20043;-40
2023/01/17 06:54:04;;;;;;;5.83;0.80;;;0.50;99.90;;;;;;5136974;27;20043;-40
2023/01/17 06:56:32;;;;;;;3.50;0.30;;;0.40;99.90;;;;;;5136415;27;20035;-40
2023/01/17 06:58:58;;;;;;;6.80;0.80;;;0.20;99.90;;;;;;5136953;27;20039;-41
2023/01/17 07:01:24;;;;;;;7.03;0.53;;;0.00;1.00;;;;;;5118093;27;20511;-41
2023/01/17 07:03:51;;;;;;;7.10;0.60;;;-0.10;99.90;;;;;;5136224;27;20047;-41
2023/01/17 07:06:17;;;;;;;3.83;0.40;;;-0.20;99.90;;;;;;5136235;27;20500;-40
2023/01/17 07:08:43;;;;;;;2.53;0.20;;;-0.40;99.90;;;;;;5136205;27;20043;-39
2023/01/17 07:11:09;;;;;;;2.67;0.20;;;-0.30;1.00;;;;;;5118241;27;20437;-41
2023/01/17 07:13:39;;;;;;;8.90;1.03;;;-0.20;99.90;;;;;;5117983;27;20104;-41
2023/01/17 07:16:06;;;;;;;5.80;0.20;;;-0.20;99.90;;;;;;5117764;27;20396;-41
2023/01/17 07:18:32;;;;;;;9.80;0.80;;;-0.10;99.90;;;;;;5136498;27;20086;-41
2023/01/17 07:20:58;;;;;;;4.83;0.23;;;-0.10;99.90;;;;;;5136737;27;20043;-41
2023/01/17 07:23:24;;;;;;;3.90;0.40;;;-0.10;1.00;;;;;;5135812;27;20571;-40
2023/01/17 07:25:55;;;;;;;3.93;0.33;;;0.00;1.00;;;;;;5135818;27;20047;-41
2023/01/17 07:28:22;;;;;;;4.03;0.20;;;0.00;1.00;;;;;;5135687;27;20562;-41
2023/01/17 07:30:48;;;;;;;3.57;0.63;;;0.00;99.90;;;;;;5135737;27;20043;-41
2023/01/17 07:33:14;;;;;;;4.17;0.70;;;0.00;36.50;;;;;;5117840;27;20047;-41
2023/01/17 07:35:40;;;;;;;9.50;0.70;;;-0.30;1.00;;;;;;5135947;27;20111;-41
2023/01/17 07:38:10;;;;;;;3.43;0.40;;;-0.20;99.90;;;;;;5135775;27;20469;-41
2023/01/17 07:40:36;;;;;;;4.00;0.70;;;0.10;1.00;;;;;;5117416;27;20080;-41
2023/01/17 07:43:12;;;;;;;3.50;0.40;;;0.30;1.00;;;;;;5117301;27;20099;-41
2023/01/17 07:45:43;;;;;;;3.50;0.40;;;0.40;99.90;;;;;;5119036;27;20051;-41
2023/01/17 07:48:09;;;;;;;4.97;0.27;;;0.50;1.00;;;;;;5135429;27;20488;-41
2023/01/17 07:50:37;;;;;;;10.77;0.60;;;0.50;99.90;;;;;;5116855;27;20497;-41
2023/01/17 07:53:03;;;;;;;6.00;0.50;;;0.50;6.90;;;;;;5135334;27;20112;-41
2023/01/17 07:55:29;;;;;;;4.68;0.88;;;0.50;96.40;;;;;;5135288;27;20053;-41
2023/01/17 07:57:55;;;;;;;2.67;0.60;;;0.50;99.90;;;;;;5135235;27;20039;-41
2023/01/17 08:00:27;;;;;;;4.07;0.33;;;0.60;1.00;;;;;;5116427;27;20489;-41
2023/01/17 08:02:57;;;;;;;5.60;0.67;;;0.50;1.00;;;;;;5135437;27;20103;-41
2023/01/17 08:05:23;;;;;;;6.70;0.70;;;0.60;99.90;;;;;;5134785;27;20393;-41
2023/01/17 08:07:49;;;;;;;5.17;0.90;;;0.50;99.90;;;;;;5134770;27;20043;-41
2023/01/17 08:10:16;;;;;;;7.47;0.70;;;0.60;99.90;;;;;;5135065;27;20476;-41
2023/01/17 08:12:47;;;;;;;4.73;0.43;;;0.60;99.90;;;;;;5135548;27;20047;-41
2023/01/17 08:15:14;;;;;;;13.10;0.80;;;0.60;99.90;;;;;;5135593;27;20086;-41
2023/01/17 08:17:53;;;;;;;10.70;0.73;;;0.70;99.90;;;;;;5133780;27;20047;-41
2023/01/17 08:20:20;;;;;;;6.93;0.37;;;0.60;1.00;;;;;;5135534;27;20047;-41
2023/01/17 08:22:46;;;;;;;4.20;0.40;;;0.70;99.90;;;;;;5135637;27;20097;-41
2023/01/17 08:25:12;;;;;;;7.47;1.07;;;0.80;99.90;;;;;;5134834;27;20089;-41
2023/01/17 08:27:38;;;;;;;5.60;0.87;;;0.80;99.90;;;;;;5134684;27;20084;-41
2023/01/17 08:30:06;;;;;;;6.23;0.30;;;0.70;99.90;;;;;;5117443;27;20489;-41
2023/01/17 08:32:32;;;;;;;6.33;0.80;;;0.80;1.00;;;;;;5134394;27;20054;-42
2023/01/17 08:34:57;;;;;;;5.37;0.60;;;0.90;99.90;;;;;;5135559;27;20118;-41
2023/01/17 08:37:23;;;;;;;9.07;0.40;;;1.00;99.90;;;;;;5135199;27;20500;-42
2023/01/17 08:39:49;;;;;;;5.93;0.57;;;1.10;1.00;;;;;;5116382;28;20043;-41
2023/01/17 08:42:16;;;;;;;3.93;0.57;;;1.10;99.90;;;;;;5116559;28;20485;-42
2023/01/17 08:44:42;;;;;;;6.90;0.40;;;1.20;1.00;;;;;;5134565;28;20047;-42
2023/01/17 08:47:08;;;;;;;5.07;0.57;;;1.20;1.00;;;;;;5116250;28;20059;-42
2023/01/17 08:49:34;;;;;;;9.45;0.85;;;1.40;1.00;;;;;;5134565;28;20070;-42
2023/01/17 08:52:00;;;;;;;5.18;0.68;;;1.50;1.00;;;;;;5117273;28;20050;-42
2023/01/17 08:54:25;;;;;;;5.10;1.07;;;1.40;99.90;;;;;;5116441;28;20047;-42
2023/01/17 08:56:51;;;;;;;5.43;1.23;;;1.40;1.00;;;;;;5116553;28;20107;-42
2023/01/17 08:59:17;;;;;;;6.10;0.73;;;1.40;1.00;;;;;;5134257;28;20051;-42
2023/01/17 09:01:44;;;;;;;7.03;1.53;;;1.50;99.90;;;;;;5134428;28;20038;-42
2023/01/17 09:04:11;;;;;;;5.10;0.83;;;1.40;99.90;;;;;;5134972;28;20050;-42
2023/01/17 09:06:38;;;;;;;2.83;0.47;;;1.50;1.00;;;;;;5099583;28;20042;-42
2023/01/17 09:09:06;;;;;;;6.37;1.30;;;1.50;39.80;;;;;;5134374;28;20485;-42
2023/01/17 09:11:32;;;;;;;12.20;1.27;;;1.50;80.80;;;;;;5135818;27;20490;-42
2023/01/17 09:13:58;;;;;;;9.03;0.80;;;1.50;99.90;;;;;;5103622;27;20130;-42
2023/01/17 09:16:24;;;;;;;5.50;0.67;;;1.50;99.90;;;;;;5120850;27;20138;-42
2023/01/17 09:18:57;;;;;;;4.17;0.73;;;1.60;1.00;;;;;;5138656;27;20191;-41
2023/01/17 09:21:24;;;;;;;6.53;0.80;;;1.60;99.90;;;;;;5138293;27;20043;-42
2023/01/17 09:23:50;;;;;;;4.60;0.80;;;1.70;99.90;;;;;;5138166;27;20043;-42
2023/01/17 09:26:25;;;;;;;6.97;0.90;;;1.80;99.90;;;;;;5120113;27;20168;-42
2023/01/17 09:28:51;;;;;;;3.40;1.00;;;2.00;99.90;;;;;;5138791;27;20069;-42
2023/01/17 09:31:22;;;;;;;4.23;0.60;;;2.10;1.00;;;;;;5138664;27;20504;-41
2023/01/17 09:33:49;;;;;;;2.17;0.30;;;2.10;99.90;;;;;;5120293;27;20047;-42
2023/01/17 09:36:15;;;;;;;1.58;0.10;;;2.10;7.60;;;;;;5137999;27;20054;-42
2023/01/17 09:38:41;;;;;;;2.45;0.10;;;2.20;1.00;;;;;;5119623;27;20047;-42
2023/01/17 09:41:30;;;;;;;2.55;0.10;;;2.20;99.90;;;;;;5137877;27;20047;-42
2023/01/17 09:44:01;;;;;;;0.20;0.00;;;2.10;99.90;;;;;;5119753;27;20078;-42
2023/01/17 09:46:37;;;;;;;2.73;0.33;;;2.30;99.90;;;;;;5115484;28;20058;-42
2023/01/17 09:49:07;;;;;;;1.08;0.05;;;2.40;1.00;;;;;;5115962;28;20055;-41
2023/01/17 09:51:33;;;;;;;2.90;0.45;;;2.40;1.00;;;;;;5117428;28;20047;-42
2023/01/17 09:54:01;;;;;;;0.20;0.00;;;2.40;1.00;;;;;;5099453;28;20051;-42
2023/01/17 09:56:39;;;;;;;0.75;0.00;;;2.40;80.60;;;;;;5117105;28;20093;-42
2023/01/17 09:59:40;;;;;;;1.70;0.10;;;2.40;1.00;;;;;;5117931;28;20449;-42
2023/01/17 10:02:30;;;;;;;4.60;0.30;;;2.60;1.00;;;;;;5116667;28;20554;-42
2023/01/17 10:05:04;;;;;;;2.28;0.45;;;2.60;99.90;;;;;;5116556;28;20458;-42
2023/01/17 10:07:40;;;;;;;1.85;0.30;;;2.60;99.90;;;;;;5116886;28;20074;-42
2023/01/17 10:10:27;;;;;;;1.63;0.08;;;2.50;99.90;;;;;;5116892;28;20044;-42
2023/01/17 10:13:05;;;;;;;1.33;0.10;;;2.40;73.50;;;;;;5117047;28;20473;-42
2023/01/17 10:15:43;;;;;;;1.98;0.30;;;2.30;99.90;;;;;;5117369;28;20104;-42
2023/01/17 10:18:24;;;;;;;3.28;0.20;;;2.30;1.00;;;;;;5116038;28;20055;-41
2023/01/17 10:21:10;;;;;;;4.20;0.35;;;2.10;99.90;;;;;;5116625;28;20478;-43
2023/01/17 10:24:02;;;;;;;4.43;0.30;;;1.60;99.90;;;;;;5115259;28;20039;-42
2023/01/17 10:26:28;;;;;;;10.77;0.70;;;1.30;72.30;;;;;;5116312;28;20373;-43
2023/01/17 10:29:03;;;;;;;1.77;0.20;;;1.20;99.90;;;;;;5117004;28;20044;-43
2023/01/17 10:31:42;;;;;;;2.20;0.13;;;1.20;88.80;;;;;;5116432;28;20116;-43
2023/01/17 10:34:20;;;;;;;0.30;0.00;;;1.20;99.90;;;;;;5117259;28;20040;-43
2023/01/17 10:36:51;;;;;;;1.20;0.10;;;1.30;1.00;;;;;;5116609;28;20398;-41
2023/01/17 10:39:22;;;;;;;4.38;0.20;;;2.20;99.90;;;;;;5116593;28;20039;-42
2023/01/17 10:42:02;;;;;;;0.88;0.20;;;2.10;1.00;;;;;;5116353;28;20086;-42
2023/01/17 10:44:55;;;;;;;3.08;0.57;;;2.30;1.00;;;;;;5116726;28;20044;-42
2023/01/17 10:47:22;;;;;;;7.15;0.32;;;2.50;1.00;;;;;;5134993;27;20059;-42
2023/01/17 10:49:54;;;;;;;6.70;0.40;;;2.50;99.90;;;;;;5118513;27;20047;-42
2023/01/17 10:52:47;;;;;;;5.90;0.40;;;2.50;99.90;;;;;;5101721;27;20134;-42
2023/01/17 10:55:25;;;;;;;4.80;1.30;;;2.60;99.90;;;;;;5135364;27;20050;-42
2023/01/17 10:57:52;;;;;;;4.75;0.40;;;2.60;84.50;;;;;;5136757;27;20051;-42
2023/01/17 11:00:26;;;;;;;7.05;0.40;;;2.60;99.90;;;;;;5118251;27;20047;-42
2023/01/17 11:02:52;;;;;;;5.57;1.65;;;2.60;99.90;;;;;;5135923;27;20382;-42
2023/01/17 11:05:25;;;;;;;2.28;0.10;;;2.60;99.90;;;;;;5136289;27;20050;-42
2023/01/17 11:08:09;;;;;;;4.13;0.60;;;2.60;46.30;;;;;;5136827;27;20462;-42
2023/01/17 11:10:46;;;;;;;2.75;0.65;;;2.70;99.90;;;;;;5136880;27;20078;-42
2023/01/17 11:13:34;;;;;;;2.88;0.40;;;2.70;99.90;;;;;;5136164;27;20093;-42
2023/01/17 11:16:07;;;;;;;2.72;0.52;;;2.80;88.50;;;;;;5117743;27;20397;-42
2023/01/17 11:18:37;;;;;;;3.92;0.60;;;2.90;1.00;;;;;;5136394;27;20124;-42
2023/01/17 11:21:15;;;;;;;3.67;0.70;;;3.00;99.90;;;;;;5135952;27;20047;-42
2023/01/17 11:23:46;;;;;;;3.50;0.60;;;3.10;1.00;;;;;;5136732;27;20039;-42
2023/01/17 11:26:26;;;;;;;4.03;0.32;;;3.20;99.90;;;;;;5136156;27;20047;-42
2023/01/17 11:29:11;;;;;;;4.93;0.70;;;3.30;99.90;;;;;;5136512;27;20134;-42
2023/01/17 11:31:37;;;;;;;3.33;0.40;;;3.40;99.90;;;;;;5136403;27;20043;-42
2023/01/17 11:34:14;;;;;;;3.72;0.50;;;3.40;1.00;;;;;;5134953;27;20476;-42
2023/01/17 11:36:40;;;;;;;4.70;0.50;;;3.50;1.00;;;;;;5136032;27;20047;-42
2023/01/17 11:39:24;;;;;;;4.07;1.20;;;3.50;1.00;;;;;;5135913;27;20078;-42
2023/01/17 11:41:51;;;;;;;2.85;0.70;;;3.60;59.80;;;;;;5118062;27;20046;-42
2023/01/17 11:44:31;;;;;;;3.03;0.80;;;3.70;99.90;;;;;;5117360;27;20439;-42
2023/01/17 11:47:17;;;;;;;4.75;0.70;;;3.80;99.90;;;;;;5116944;27;20086;-42
2023/01/17 11:49:48;;;;;;;3.78;0.57;;;3.90;99.90;;;;;;5135456;27;20043;-42
2023/01/17 11:52:33;;;;;;;6.40;0.70;;;3.90;99.90;;;;;;5136012;27;20431;-42
2023/01/17 11:54:59;;;;;;;3.38;0.47;;;4.00;99.90;;;;;;5136236;27;20035;-42
2023/01/17 11:57:26;;;;;;;5.70;0.47;;;3.90;99.90;;;;;;5135298;27;20039;-42
2023/01/17 12:00:18;;;;;;;4.88;0.50;;;4.00;1.00;;;;;;5135547;27;20071;-42
2023/01/17 12:02:56;;;;;;;3.58;0.60;;;4.10;1.00;;;;;;5135189;27;20124;-42
2023/01/17 12:05:46;;;;;;;2.15;0.35;;;4.10;1.00;;;;;;5135291;27;20142;-42
2023/01/17 12:08:50;;;;;;;3.47;0.60;;;4.10;33.60;;;;;;5135141;27;20047;-42
2023/01/17 12:11:21;;;;;;;10.93;1.90;;;4.20;25.90;;;;;;5117302;27;20043;-43
2023/01/17 12:14:02;;;;;;;5.20;0.40;;;4.10;99.90;;;;;;5134983;27;20040;-42
2023/01/17 12:16:46;;;;;;;3.60;0.65;;;3.90;1.00;;;;;;5117003;27;20043;-42
2023/01/17 12:19:37;;;;;;;5.28;0.85;;;3.90;1.00;;;;;;5134983;27;20047;-42
2023/01/17 12:22:18;;;;;;;4.57;0.65;;;4.00;1.00;;;;;;5135722;27;20043;-42
2023/01/17 12:25:25;;;;;;;2.38;0.40;;;4.00;1.00;;;;;;5134789;27;20047;-42
2023/01/17 12:28:17;;;;;;;4.65;0.70;;;4.10;99.90;;;;;;5094360;27;20051;-42
2023/01/17 12:30:49;;;;;;;6.80;0.82;;;4.30;1.00;;;;;;5134825;27;20043;-43
2023/01/17 12:33:19;;;;;;;7.43;0.63;;;4.50;1.00;;;;;;5116477;28;20039;-43
2023/01/17 12:35:55;;;;;;;4.50;0.63;;;4.60;1.00;;;;;;5134694;27;20434;-43
2023/01/17 12:38:38;;;;;;;6.82;0.80;;;4.70;1.00;;;;;;5134655;27;20484;-44
2023/01/17 12:41:25;;;;;;;3.88;0.52;;;4.80;99.90;;;;;;5134989;27;20046;-43
2023/01/17 12:43:56;;;;;;;2.10;0.43;;;5.00;99.90;;;;;;5116406;28;20046;-43
2023/01/17 12:46:42;;;;;;;3.33;0.55;;;5.30;1.00;;;;;;5138744;27;20051;-43
2023/01/17 12:49:44;;;;;;;2.40;0.47;;;5.50;99.90;;;;;;5123873;27;20047;-43
2023/01/17 12:52:20;;;;;;;3.20;0.52;;;5.60;99.90;;;;;;5141708;27;20054;-43
2023/01/17 12:54:52;;;;;;;1.83;0.35;;;5.70;99.90;;;;;;5141110;27;20481;-43
2023/01/17 12:57:24;;;;;;;6.00;1.08;;;5.70;1.00;;;;;;5141379;27;20047;-43
2023/01/17 13:00:18;;;;;;;5.93;0.88;;;5.70;1.00;;;;;;5141362;27;20047;-43
2023/01/17 13:03:13;;;;;;;8.68;0.85;;;5.60;99.90;;;;;;5141689;27;20075;-44
2023/01/17 13:05:44;;;;;;;4.93;0.68;;;5.50;99.90;;;;;;5141345;27;20133;-43
2023/01/17 13:08:30;;;;;;;3.05;0.50;;;5.50;99.90;;;;;;5140106;27;20051;-43
2023/01/17 13:11:13;;;;;;;5.15;0.60;;;5.70;99.90;;;;;;5141172;27;20039;-43
2023/01/17 13:13:40;;;;;;;3.67;0.63;;;5.50;99.90;;;;;;5141541;27;20039;-44
2023/01/17 13:16:11;;;;;;;2.58;0.60;;;5.40;99.90;;;;;;5123229;27;20055;-43
2023/01/17 13:18:45;;;;;;;5.32;0.50;;;5.40;99.90;;;;;;5141192;27;20047;-43
2023/01/17 13:21:32;;;;;;;9.52;0.82;;;5.20;99.90;;;;;;5140948;27;20454;-43
2023/01/17 13:23:58;;;;;;;5.50;0.80;;;5.00;99.90;;;;;;5141092;27;20031;-43
2023/01/17 13:26:38;;;;;;;4.72;1.08;;;4.90;1.00;;;;;;5140950;27;20062;-43
2023/01/17 13:29:41;;;;;;;4.40;0.70;;;4.90;1.00;;;;;;5122595;27;20507;-42
2023/01/17 13:32:22;;;;;;;2.33;0.40;;;4.70;1.00;;;;;;5123742;27;20376;-43
2023/01/17 13:35:12;;;;;;;4.55;0.52;;;4.50;1.00;;;;;;5140989;27;20494;-42
2023/01/17 13:37:53;;;;;;;4.28;1.00;;;4.40;99.90;;;;;;5123164;27;20141;-42
2023/01/17 13:40:35;;;;;;;1.75;0.50;;;4.40;99.90;;;;;;5141771;27;20134;-42
2023/01/17 13:43:11;;;;;;;5.85;0.52;;;4.30;1.00;;;;;;5140891;27;20057;-42
2023/01/17 13:45:38;;;;;;;7.57;0.95;;;4.50;1.00;;;;;;5141412;27;20162;-43
2023/01/17 13:48:13;;;;;;;4.35;0.73;;;4.70;18.70;;;;;;5140927;27;20385;-43
2023/01/17 13:50:54;;;;;;;6.03;0.90;;;4.90;99.90;;;;;;5141155;27;20066;-43
2023/01/17 13:53:35;;;;;;;2.50;0.43;;;5.10;99.90;;;;;;5141477;27;20419;-43
2023/01/17 13:56:31;;;;;;;4.18;0.30;;;5.10;99.90;;;;;;5141309;27;20047;-43
2023/01/17 13:59:02;;;;;;;3.60;0.38;;;5.10;1.00;;;;;;5136896;27;20047;-43
2023/01/17 14:01:37;;;;;;;6.45;0.60;;;5.10;1.00;;;;;;5137543;27;20168;-43
2023/01/17 14:04:12;;;;;;;2.55;0.32;;;5.00;99.90;;;;;;5137447;27;20054;-43
2023/01/17 14:06:39;;;;;;;3.15;0.40;;;5.00;99.90;;;;;;5137445;27;20054;-43
2023/01/17 14:09:26;;;;;;;4.68;0.80;;;4.80;99.90;;;;;;5137461;27;20130;-43
2023/01/17 14:12:04;;;;;;;1.75;0.50;;;4.60;99.90;;;;;;5137386;27;20051;-42
2023/01/17 14:14:39;;;;;;;3.95;0.40;;;4.40;99.90;;;;;;5138213;27;20043;-42
2023/01/17 14:17:27;;;;;;;3.95;0.93;;;4.20;1.00;;;;;;5137308;27;20058;-42
2023/01/17 14:19:56;;;;;;;4.63;0.50;;;4.20;1.00;;;;;;5118880;27;20039;-42
2023/01/17 14:22:22;;;;;;;6.30;0.55;;;4.20;1.00;;;;;;5137173;27;20100;-42
2023/01/17 14:25:22;;;;;;;3.08;0.40;;;4.40;99.90;;;;;;5137059;27;20043;-42
2023/01/17 14:27:50;;;;;;;4.05;0.73;;;4.50;99.90;;;;;;5126135;27;20080;-42
2023/01/17 14:30:16;;;;;;;5.93;0.65;;;4.60;99.90;;;;;;5136949;27;20045;-42
2023/01/17 14:33:01;;;;;;;1.67;0.13;;;4.40;99.90;;;;;;5118759;27;20086;-42
2023/01/17 14:35:37;;;;;;;4.05;0.68;;;4.10;1.00;;;;;;5137159;27;20078;-42
2023/01/17 14:38:17;;;;;;;5.70;0.32;;;3.70;1.00;;;;;;5137707;27;20039;-41
2023/01/17 14:40:53;;;;;;;4.68;0.30;;;3.70;1.00;;;;;;5137391;27;20047;-42
2023/01/17 14:43:22;;;;;;;4.35;0.30;;;3.80;1.00;;;;;;5136937;27;20050;-41
2023/01/17 14:45:54;;;;;;;2.58;0.25;;;3.90;1.00;;;;;;5136578;27;20507;-42
2023/01/17 14:48:22;;;;;;;6.57;0.88;;;4.30;1.00;;;;;;5137009;27;20055;-42
2023/01/17 14:50:50;;;;;;;3.00;0.50;;;4.30;1.00;;;;;;5137095;27;20388;-41